Time;durP1;ratioP1;P1;durP2;ratioP2;P2;SDS_P1;SDS_P2;PMS_P1;PMS_P2;Temp;Humidity;BMP_temperature;BMP_pressure;BME280_temperature;BME280_humidity;BME280_pressure;Samples;Min_cycle;Max_cycle;Signal;HPM_P1;HPM_P2
2023/04/11 06:40:34;;;;;;;;;3.50;2.00;;;;;17.79;49.25;101521.19;5060322;27;45900;-74
2023/04/11 06:43:00;;;;;;;;;4.00;3.00;;;;;18.32;50.59;101528.13;5050238;28;45470;-73
2023/04/11 06:45:26;;;;;;;;;3.00;2.00;;;;;19.12;50.84;101523.03;5047071;28;45635;-74
2023/04/11 06:47:51;;;;;;;;;3.75;2.25;;;;;20.01;50.77;101529.50;5048297;28;45334;-74
2023/04/11 06:50:16;;;;;;;;;1.33;1.00;;;;;20.85;50.39;101535.22;5047692;28;45425;-73
2023/04/11 06:52:42;;;;;;;;;2.75;2.75;;;;;21.57;49.50;101541.59;5048440;28;45594;-74
2023/04/11 06:55:08;;;;;;;;;3.00;3.00;;;;;22.21;49.28;101538.66;5047596;28;54634;-74
2023/04/11 06:57:34;;;;;;;;;2.67;2.67;;;;;22.76;48.19;101550.81;5043619;28;46157;-74
2023/04/11 06:59:59;;;;;;;;;1.33;1.33;;;;;23.21;48.04;101551.13;5037457;28;45675;-72
2023/04/11 07:02:25;;;;;;;;;2.67;2.67;;;;;23.63;47.35;101551.75;5042593;28;45624;-73
2023/04/11 07:04:50;;;;;;;;;4.67;3.00;;;;;23.98;46.96;101549.28;5048063;28;45822;-74
2023/04/11 07:07:15;;;;;;;;;1.00;1.00;;;;;24.28;46.39;101567.06;5046549;28;45675;-72
2023/04/11 07:09:42;;;;;;;;;4.33;1.33;;;;;24.56;46.08;101560.75;5045170;28;46043;-73
2023/04/11 07:12:07;;;;;;;;;2.33;2.33;;;;;24.82;45.87;101570.81;5046562;28;45486;-73
2023/04/11 07:14:32;;;;;;;;;2.00;1.67;;;;;25.02;44.96;101567.91;5046654;28;45489;-73
2023/04/11 07:16:58;;;;;;;;;2.00;0.67;;;;;25.19;44.88;101574.31;5040239;28;58621;-71
2023/04/11 07:19:23;;;;;;;;;2.33;2.33;;;;;25.31;44.84;101564.91;5047339;28;45450;-70
2023/04/11 07:21:48;;;;;;;;;1.67;1.67;;;;;25.45;44.27;101568.00;5047654;28;45616;-71
2023/04/11 07:24:17;;;;;;;;;3.67;3.67;;;;;25.56;43.76;101567.78;5047854;28;56454;-72
2023/04/11 07:26:45;;;;;;;;;1.00;1.00;;;;;25.68;43.98;101567.47;5042494;28;45550;-72
2023/04/11 07:29:10;;;;;;;;;3.00;3.00;;;;;25.75;43.91;101558.50;5043640;28;45975;-72
2023/04/11 07:31:36;;;;;;;;;5.00;3.00;;;;;25.81;43.17;101557.00;5048014;28;45489;-72
2023/04/11 07:34:01;;;;;;;;;1.67;0.33;;;;;25.89;42.62;101556.16;5045822;28;46123;-72
2023/04/11 07:36:26;;;;;;;;;2.00;0.00;;;;;25.93;42.96;101538.50;5048538;28;45752;-72
2023/04/11 07:38:52;;;;;;;;;1.33;1.00;;;;;26.02;42.13;101540.25;5045558;28;45668;-72
2023/04/11 07:41:17;;;;;;;;;3.00;1.00;;;;;26.11;42.40;101535.66;5040305;28;45538;-72
2023/04/11 07:43:42;;;;;;;;;4.00;1.33;;;;;26.19;41.91;101534.81;5048972;28;45438;-72
2023/04/11 07:46:08;;;;;;;;;5.00;2.33;;;;;26.27;41.96;101540.31;5061080;28;45446;-72
2023/04/11 07:48:33;;;;;;;;;1.67;1.00;;;;;26.36;42.12;101543.06;5043056;28;45440;-71
2023/04/11 07:50:58;;;;;;;;;2.00;2.00;;;;;26.43;41.93;101538.63;5035010;28;57072;-72
2023/04/11 07:53:24;;;;;;;;;3.67;1.00;;;;;26.51;41.81;101535.03;5032677;28;45628;-72
2023/04/11 07:55:49;;;;;;;;;2.00;1.00;;;;;26.60;41.59;101530.47;5031350;28;45863;-72
2023/04/11 07:58:14;;;;;;;;;2.00;2.00;;;;;26.65;41.21;101528.09;5034311;28;45990;-72
2023/04/11 08:00:40;;;;;;;;;0.00;0.00;;;;;26.69;40.74;101519.41;5032030;28;45773;-72
2023/04/11 08:03:10;;;;;;;;;0.00;0.00;;;;;26.75;40.57;101515.16;5029052;28;45684;-70
2023/04/11 08:05:36;;;;;;;;;1.00;1.00;;;;;26.77;40.79;101525.88;5034999;28;45433;-71
2023/04/11 08:08:03;;;;;;;;;3.00;1.33;;;;;26.81;40.77;101532.69;5033310;28;45428;-72
2023/04/11 08:10:28;;;;;;;;;4.00;2.33;;;;;26.84;40.60;101533.19;5048543;28;45446;-71
2023/04/11 08:12:54;;;;;;;;;1.00;1.00;;;;;26.89;40.27;101546.25;5034464;28;45602;-71
2023/04/11 08:15:19;;;;;;;;;1.33;1.33;;;;;26.89;39.63;101543.53;5026605;28;45534;-72
2023/04/11 08:17:45;;;;;;;;;2.00;2.00;;;;;26.93;39.65;101550.38;5033760;28;46532;-72
2023/04/11 08:20:11;;;;;;;;;2.00;2.00;;;;;26.97;40.14;101556.31;5033017;28;45477;-72
2023/04/11 08:22:43;;;;;;;;;1.00;1.00;;;;;27.01;39.88;101559.56;5033933;28;46300;-72
2023/04/11 08:25:10;;;;;;;;;0.67;0.67;;;;;27.02;39.83;101559.38;5030987;28;45439;-72
2023/04/11 08:27:36;;;;;;;;;1.00;1.00;;;;;27.05;39.73;101569.13;5033238;28;47650;-72
2023/04/11 08:30:03;;;;;;;;;2.00;2.00;;;;;27.07;39.46;101559.75;5033569;28;45706;-74
2023/04/11 08:32:28;;;;;;;;;2.00;1.00;;;;;27.10;39.50;101559.38;5033191;28;45394;-72
2023/04/11 08:34:53;;;;;;;;;1.00;1.00;;;;;27.12;39.49;101552.91;5032618;28;48330;-73
2023/04/11 08:37:19;;;;;;;;;2.67;1.00;;;;;27.14;39.15;101554.41;5032042;28;46219;-73
2023/04/11 08:39:44;;;;;;;;;0.67;0.67;;;;;27.18;39.02;101549.50;5033451;28;45428;-73
2023/04/11 08:42:30;;;;;;;;;2.67;1.00;;;;;27.22;39.03;101569.94;5033709;28;45508;-72
2023/04/11 08:44:58;;;;;;;;;1.00;1.00;;;;;27.25;38.88;101563.28;5021053;28;45873;-73
2023/04/11 08:47:24;;;;;;;;;4.33;1.33;;;;;27.27;38.30;101550.31;5032511;28;46103;-73
2023/04/11 08:49:50;;;;;;;;;0.00;0.00;;;;;27.32;38.20;101564.28;5033394;28;45679;-73
2023/04/11 08:52:18;;;;;;;;;1.00;1.00;;;;;27.34;37.87;101554.06;5033082;28;45845;-73
2023/04/11 08:54:43;;;;;;;;;2.67;1.00;;;;;27.38;37.93;101568.19;5031976;28;45573;-72
2023/04/11 08:57:13;;;;;;;;;2.00;2.00;;;;;27.37;37.77;101556.41;5032736;28;45638;-73
2023/04/11 08:59:49;;;;;;;;;0.67;0.33;;;;;27.41;38.44;101559.63;5032473;28;45591;-73
2023/04/11 09:02:14;;;;;;;;;0.00;0.00;;;;;27.42;37.68;101566.81;5028887;28;45506;-72
2023/04/11 09:04:41;;;;;;;;;1.67;1.67;;;;;27.43;37.81;101563.06;5013864;28;57757;-72
2023/04/11 09:07:07;;;;;;;;;1.00;1.00;;;;;27.42;37.91;101550.47;5015699;28;45685;-72
2023/04/11 09:09:35;;;;;;;;;1.00;1.00;;;;;27.45;37.78;101556.41;5017320;28;45526;-72
2023/04/11 09:12:01;;;;;;;;;1.00;1.00;;;;;27.49;37.22;101551.44;5024079;28;45552;-73
2023/04/11 09:14:27;;;;;;;;;1.00;1.00;;;;;27.50;37.73;101555.84;5028620;28;45591;-72
2023/04/11 09:17:02;;;;;;;;;1.67;1.67;;;;;27.50;37.05;101553.13;5033968;28;46937;-72
2023/04/11 09:19:30;;;;;;;;;0.67;0.67;;;;;27.52;37.64;101550.22;5032718;28;45501;-72
2023/04/11 09:21:59;;;;;;;;;2.33;1.00;;;;;27.51;37.41;101560.31;5032592;28;45593;-73
2023/04/11 09:24:30;;;;;;;;;1.67;1.67;;;;;27.53;37.33;101558.25;5033202;28;45504;-72
2023/04/11 09:27:18;;;;;;;;;1.00;1.00;;;;;27.52;36.72;101551.09;5031976;28;45464;-76
2023/04/11 09:29:45;;;;;;;;;1.00;1.00;;;;;27.51;36.92;101557.59;5028359;28;45333;-76
2023/04/11 09:32:29;;;;;;;;;2.00;1.00;;;;;27.54;37.35;101565.38;5045983;28;45285;-76
2023/04/11 09:35:14;;;;;;;;;4.67;2.00;;;;;27.55;37.17;101553.44;5033067;28;45862;-75
2023/04/11 09:37:53;;;;;;;;;0.33;0.33;;;;;27.65;37.16;101552.41;5032381;28;46401;-75
2023/04/11 09:40:30;;;;;;;;;1.67;1.00;;;;;27.72;36.78;101551.53;5032602;28;45543;-76
2023/04/11 09:42:59;;;;;;;;;2.00;0.33;;;;;27.77;36.62;101542.84;5032918;28;45750;-75
2023/04/11 09:45:25;;;;;;;;;1.33;1.33;;;;;27.83;36.68;101549.47;5032456;28;45435;-75
2023/04/11 09:47:52;;;;;;;;;3.00;3.00;;;;;27.88;36.72;101547.03;5030201;28;45533;-75
2023/04/11 09:50:18;;;;;;;;;1.00;1.00;;;;;27.93;36.36;101536.44;5024777;28;45688;-77
2023/04/11 09:52:45;;;;;;;;;1.00;1.00;;;;;27.99;36.79;101543.91;5032525;28;45643;-74
2023/04/11 09:55:12;;;;;;;;;1.33;1.33;;;;;28.04;36.43;101534.34;5026425;28;45925;-73
2023/04/11 09:57:44;;;;;;;;;1.00;1.00;;;;;28.02;36.35;101529.06;5024844;28;46068;-73
2023/04/11 10:00:20;;;;;;;;;1.00;1.00;;;;;27.97;36.00;101536.94;5029401;28;45451;-74
2023/04/11 10:02:48;;;;;;;;;1.33;1.00;;;;;27.91;35.87;101537.66;5047961;28;45825;-73
2023/04/11 10:05:16;;;;;;;;;1.00;0.00;;;;;27.87;36.25;101546.19;5029850;28;45659;-74
2023/04/11 10:07:47;;;;;;;;;0.00;0.00;;;;;27.81;35.47;101541.44;5023064;28;45782;-73
2023/04/11 10:10:19;;;;;;;;;1.00;1.00;;;;;27.73;35.98;101533.31;5026856;28;45656;-73
2023/04/11 10:12:44;;;;;;;;;0.00;0.00;;;;;27.67;36.01;101543.03;5022774;28;45683;-73
2023/04/11 10:15:10;;;;;;;;;2.33;1.00;;;;;27.61;36.15;101546.47;5029851;28;45608;-73
2023/04/11 10:17:36;;;;;;;;;2.00;0.00;;;;;27.58;35.28;101552.25;5027982;28;45838;-73
2023/04/11 10:20:30;;;;;;;;;0.00;0.00;;;;;27.56;35.56;101557.03;5023283;28;45364;-73
2023/04/11 10:22:59;;;;;;;;;4.00;1.00;;;;;27.53;36.07;101541.03;5016353;28;45470;-73
2023/04/11 10:25:25;;;;;;;;;2.00;1.00;;;;;27.49;35.33;101525.03;5030615;28;45523;-75
2023/04/11 10:27:53;;;;;;;;;2.00;0.00;;;;;27.51;35.58;101527.59;5031889;28;45434;-74
2023/04/11 10:30:38;;;;;;;;;1.00;1.00;;;;;27.58;35.76;101517.66;5018267;28;45502;-74
2023/04/11 10:33:16;;;;;;;;;0.67;0.67;;;;;27.67;35.89;101515.75;5031934;28;45392;-75
2023/04/11 10:36:08;;;;;;;;;1.33;1.00;;;;;27.75;35.29;101515.72;5029822;28;45566;-75
2023/04/11 10:38:47;;;;;;;;;1.00;0.00;;;;;27.83;35.39;101520.28;5025977;28;45736;-74
2023/04/11 10:41:21;;;;;;;;;1.00;1.00;;;;;27.89;35.76;101529.66;5031399;28;45403;-75
2023/04/11 10:43:47;;;;;;;;;1.00;1.00;;;;;27.93;34.95;101520.06;5031461;28;45690;-75
2023/04/11 10:46:24;;;;;;;;;2.00;2.00;;;;;27.95;34.91;101514.44;5031756;28;45819;-75
2023/04/11 10:49:00;;;;;;;;;1.00;1.00;;;;;27.98;35.68;101495.81;5029057;28;45882;-74
2023/04/11 10:51:27;;;;;;;;;4.00;1.33;;;;;27.98;34.85;101494.97;5023833;28;45377;-75
2023/04/11 10:53:53;;;;;;;;;1.00;1.00;;;;;27.98;35.23;101506.75;5026561;28;45442;-74
2023/04/11 10:56:39;;;;;;;;;0.33;0.33;;;;;28.01;34.89;101520.03;5030051;28;45583;-75
2023/04/11 10:59:04;;;;;;;;;0.33;0.00;;;;;28.03;35.29;101517.09;5017163;28;46085;-76
2023/04/11 11:01:30;;;;;;;;;3.00;2.00;;;;;28.07;35.14;101509.44;5029228;28;45404;-73
2023/04/11 11:03:55;;;;;;;;;0.00;0.00;;;;;28.11;35.37;101505.28;5031126;28;45563;-75
2023/04/11 11:06:22;;;;;;;;;2.67;1.67;;;;;28.11;34.68;101514.31;5031400;28;45542;-74
2023/04/11 11:08:48;;;;;;;;;1.00;1.00;;;;;28.11;34.63;101500.69;5031230;28;46441;-73
2023/04/11 11:11:15;;;;;;;;;0.00;0.00;;;;;28.09;34.42;101496.44;5030783;28;45708;-73
2023/04/11 11:13:50;;;;;;;;;0.00;0.00;;;;;28.10;35.25;101492.66;5031661;28;45601;-73
2023/04/11 11:16:17;;;;;;;;;0.00;0.00;;;;;28.09;34.45;101474.59;5030596;28;45408;-74
2023/04/11 11:18:48;;;;;;;;;2.33;0.00;;;;;28.06;35.00;101473.09;5012486;28;45634;-73
2023/04/11 11:21:15;;;;;;;;;2.00;0.00;;;;;28.03;34.80;101465.25;5013101;28;46027;-75
2023/04/11 11:23:54;;;;;;;;;2.00;1.67;;;;;28.01;34.60;101465.47;5027100;28;45688;-77
2023/04/11 11:26:19;;;;;;;;;1.00;1.00;;;;;27.99;34.45;101462.06;5031957;28;45802;-77
2023/04/11 11:28:46;;;;;;;;;2.67;2.00;;;;;27.95;34.13;101457.16;5034494;28;45455;-77
2023/04/11 11:31:12;;;;;;;;;1.33;1.00;;;;;27.90;34.51;101449.50;5035025;28;45467;-77
2023/04/11 11:33:40;;;;;;;;;4.00;1.00;;;;;27.86;34.12;101439.97;5033388;28;45656;-75
2023/04/11 11:36:07;;;;;;;;;1.33;1.33;;;;;27.82;34.29;101458.59;5033277;28;47501;-75
2023/04/11 11:38:33;;;;;;;;;2.67;1.00;;;;;27.76;34.10;101459.31;5033052;28;45555;-75
2023/04/11 11:40:58;;;;;;;;;5.00;3.67;;;;;27.73;34.34;101455.06;5034799;28;45451;-75
2023/04/11 11:43:28;;;;;;;;;3.33;2.00;;;;;27.70;34.72;101444.53;5032587;28;45500;-75
2023/04/11 11:46:12;;;;;;;;;3.00;0.67;;;;;27.73;34.58;101444.16;5034977;28;45337;-74
2023/04/11 11:48:38;;;;;;;;;3.00;2.00;;;;;27.78;34.11;101445.50;5033887;28;45435;-74
2023/04/11 11:51:04;;;;;;;;;0.67;0.67;;;;;27.82;34.12;101444.09;5028778;28;45577;-75
2023/04/11 11:53:29;;;;;;;;;2.00;2.00;;;;;27.87;34.33;101438.94;5034227;28;45316;-74
2023/04/11 11:55:55;;;;;;;;;2.67;1.00;;;;;27.92;34.89;101432.97;5034825;28;45583;-75
2023/04/11 11:58:21;;;;;;;;;3.33;2.00;;;;;27.95;34.47;101433.44;5034430;28;47074;-74
2023/04/11 12:00:49;;;;;;;;;3.33;1.33;;;;;27.97;34.69;101431.38;5034491;28;45607;-74
2023/04/11 12:03:24;;;;;;;;;2.00;2.00;;;;;28.00;34.26;101435.63;5033963;28;45610;-75
2023/04/11 12:05:53;;;;;;;;;3.67;1.00;;;;;28.04;34.00;101434.25;5034701;28;45348;-75
2023/04/11 12:08:21;;;;;;;;;2.00;1.00;;;;;28.07;34.63;101433.03;5033148;28;45455;-75
2023/04/11 12:10:47;;;;;;;;;2.67;1.00;;;;;28.06;34.52;101421.25;5034247;28;45411;-74
2023/04/11 12:13:15;;;;;;;;;4.67;2.00;;;;;28.15;34.50;101443.84;5034251;28;45678;-76
2023/04/11 12:15:45;;;;;;;;;1.67;0.33;;;;;28.17;34.42;101432.75;5034589;28;45431;-74
2023/04/11 12:18:10;;;;;;;;;3.00;3.00;;;;;28.18;34.08;101429.84;5029043;28;45851;-75
2023/04/11 12:20:36;;;;;;;;;0.00;0.00;;;;;28.24;33.81;101437.31;5034085;28;45835;-75
2023/04/11 12:23:01;;;;;;;;;1.00;1.00;;;;;28.27;34.42;101431.50;5026048;28;45733;-75
2023/04/11 12:25:27;;;;;;;;;2.00;1.00;;;;;28.29;34.67;101434.06;5024444;28;46169;-75
2023/04/11 12:27:53;;;;;;;;;0.67;0.33;;;;;28.32;34.59;101427.38;5029414;28;47410;-75
2023/04/11 12:30:18;;;;;;;;;1.00;1.00;;;;;28.36;34.27;101439.63;5033882;28;45509;-75
2023/04/11 12:32:43;;;;;;;;;3.00;1.33;;;;;28.38;33.90;101443.88;5033885;28;45483;-75
2023/04/11 12:35:10;;;;;;;;;0.00;0.00;;;;;28.41;33.50;101437.19;5033646;28;45468;-75
2023/04/11 12:37:35;;;;;;;;;0.67;0.67;;;;;28.41;34.25;101437.19;5033204;28;45430;-75
2023/04/11 12:40:00;;;;;;;;;2.33;1.00;;;;;28.41;33.98;101434.47;5033492;28;45434;-76
2023/04/11 12:42:26;;;;;;;;;1.00;1.00;;;;;28.41;34.36;101435.28;5032340;28;45547;-76
2023/04/11 12:44:51;;;;;;;;;2.00;2.00;;;;;28.44;34.22;101439.53;5025442;28;45414;-76
2023/04/11 12:47:17;;;;;;;;;1.00;1.00;;;;;28.46;34.27;101439.34;5031758;28;45936;-75
2023/04/11 12:49:42;;;;;;;;;3.00;2.00;;;;;28.45;33.76;101426.75;5029904;28;45476;-76
2023/04/11 12:52:08;;;;;;;;;1.67;0.00;;;;;28.46;34.61;101423.84;5030335;28;45775;-74
2023/04/11 12:54:34;;;;;;;;;1.67;1.00;;;;;28.50;33.94;101432.50;5031726;28;45478;-76
2023/04/11 12:56:59;;;;;;;;;1.00;1.00;;;;;28.51;34.04;101428.72;5032211;28;45922;-75
2023/04/11 12:59:25;;;;;;;;;1.00;0.33;;;;;28.54;33.85;101423.72;5032633;28;45404;-74
2023/04/11 13:01:50;;;;;;;;;0.00;0.00;;;;;28.56;34.08;101406.34;5031839;28;45708;-75
2023/04/11 13:04:16;;;;;;;;;1.00;1.00;;;;;28.59;34.12;101400.47;5033640;28;45497;-75
2023/04/11 13:06:42;;;;;;;;;1.33;1.33;;;;;28.60;33.88;101399.47;5032490;28;46303;-75
2023/04/11 13:09:10;;;;;;;;;2.00;1.00;;;;;28.57;33.83;101394.38;5029239;28;45557;-75
2023/04/11 13:11:36;;;;;;;;;0.00;0.00;;;;;28.54;34.09;101390.97;5032867;28;45446;-75
2023/04/11 13:14:01;;;;;;;;;2.67;0.00;;;;;28.54;34.19;101385.50;5032409;28;46674;-78
2023/04/11 13:16:26;;;;;;;;;1.00;1.00;;;;;28.56;34.23;101387.22;5032812;28;45569;-72
2023/04/11 13:18:51;;;;;;;;;2.00;0.00;;;;;28.54;33.85;101381.94;5030209;28;56019;-73
2023/04/11 13:21:17;;;;;;;;;1.00;1.00;;;;;28.50;33.54;101372.44;5029070;28;53200;-72
2023/04/11 13:23:44;;;;;;;;;0.00;0.00;;;;;28.45;33.94;101369.41;5024017;28;45868;-73
2023/04/11 13:26:09;;;;;;;;;0.67;0.67;;;;;28.36;33.48;101361.31;5032943;28;45982;-73
2023/04/11 13:28:37;;;;;;;;;1.67;0.33;;;;;28.31;33.65;101355.56;5019785;28;47004;-73
2023/04/11 13:31:03;;;;;;;;;2.00;1.00;;;;;28.26;33.07;101364.31;5021919;28;45680;-72
2023/04/11 13:33:28;;;;;;;;;0.00;0.00;;;;;28.21;33.38;101354.94;5030478;28;45443;-72
2023/04/11 13:35:53;;;;;;;;;0.00;0.00;;;;;28.16;33.12;101355.53;5032522;28;45418;-72
2023/04/11 13:38:19;;;;;;;;;1.67;1.00;;;;;28.11;33.60;101334.22;5014565;28;45564;-73
2023/04/11 13:40:44;;;;;;;;;1.00;1.00;;;;;28.09;33.23;101341.75;5030333;28;53849;-72
2023/04/11 13:43:09;;;;;;;;;0.67;0.67;;;;;28.05;33.09;101324.06;5032760;28;45379;-73
2023/04/11 13:45:35;;;;;;;;;1.33;1.00;;;;;28.04;33.49;101326.97;5032862;28;45902;-72
2023/04/11 13:48:01;;;;;;;;;1.00;1.00;;;;;28.04;33.22;101325.09;5031088;28;45455;-72
2023/04/11 13:50:26;;;;;;;;;1.00;1.00;;;;;28.05;33.19;101315.03;5032426;28;45403;-73
2023/04/11 13:52:51;;;;;;;;;0.00;0.00;;;;;28.04;32.96;101327.84;5033142;28;46379;-72
2023/04/11 13:55:17;;;;;;;;;0.33;0.33;;;;;28.00;33.37;101316.41;5032670;28;45469;-72
2023/04/11 13:57:42;;;;;;;;;1.00;1.00;;;;;27.98;33.26;101314.91;5032857;28;45398;-72
2023/04/11 14:00:11;;;;;;;;;1.00;1.00;;;;;27.94;32.88;101316.31;5032666;28;45378;-72
2023/04/11 14:02:39;;;;;;;;;1.00;0.00;;;;;27.92;32.86;101316.53;5029468;28;45410;-72
2023/04/11 14:05:06;;;;;;;;;0.00;0.00;;;;;27.92;32.96;101305.59;5027111;28;45921;-72
2023/04/11 14:07:31;;;;;;;;;3.00;2.00;;;;;27.91;32.75;101294.88;5026265;28;47050;-74
2023/04/11 14:09:56;;;;;;;;;2.67;2.00;;;;;27.88;32.79;101294.19;5041019;28;45541;-76
2023/04/11 14:12:22;;;;;;;;;2.00;2.00;;;;;27.87;33.15;101288.91;5028268;28;45662;-79
2023/04/11 14:14:48;;;;;;;;;3.67;1.00;;;;;27.88;33.38;101280.56;5028540;28;45423;-78
2023/04/11 14:17:13;;;;;;;;;1.00;0.33;;;;;27.91;32.76;101273.06;5025711;28;45445;-79
2023/04/11 14:19:38;;;;;;;;;1.33;1.00;;;;;27.96;33.02;101271.44;5030479;28;45463;-78
2023/04/11 14:22:04;;;;;;;;;1.33;1.33;;;;;28.01;32.90;101277.22;5030102;28;45509;-76
2023/04/11 14:24:29;;;;;;;;;1.00;1.00;;;;;28.06;32.88;101259.41;5031159;28;46385;-77
2023/04/11 14:26:55;;;;;;;;;4.00;2.00;;;;;28.12;33.13;101270.44;5032385;28;45356;-77
2023/04/11 14:29:21;;;;;;;;;1.00;1.00;;;;;28.19;33.58;101262.34;5030576;28;45558;-76
2023/04/11 14:31:46;;;;;;;;;3.67;1.00;;;;;28.24;32.89;101256.34;5024589;28;45549;-77
2023/04/11 14:34:11;;;;;;;;;4.67;2.00;;;;;28.27;33.11;101248.66;5020438;28;45646;-77
2023/04/11 14:36:37;;;;;;;;;2.33;1.00;;;;;28.28;33.26;101233.97;5030558;28;46187;-78
2023/04/11 14:39:03;;;;;;;;;2.00;1.00;;;;;28.27;33.12;101243.19;5025897;28;45666;-77
2023/04/11 14:41:29;;;;;;;;;3.00;2.00;;;;;28.25;33.28;101239.78;5030615;28;45526;-77
2023/04/11 14:43:55;;;;;;;;;2.33;2.00;;;;;28.25;32.75;101228.88;5026890;28;45528;-77
2023/04/11 14:46:20;;;;;;;;;0.00;0.00;;;;;28.26;32.93;101224.25;5028385;28;45473;-77
2023/04/11 14:48:45;;;;;;;;;3.67;1.00;;;;;28.26;32.87;101227.00;5028324;28;45692;-77
2023/04/11 14:51:11;;;;;;;;;1.00;1.00;;;;;28.25;33.47;101209.75;5030243;28;45626;-77
2023/04/11 14:53:36;;;;;;;;;1.67;1.67;;;;;28.24;33.28;101205.34;5027268;28;45571;-76
2023/04/11 14:56:05;;;;;;;;;0.00;0.00;;;;;28.22;33.11;101204.66;5027405;28;45494;-78
2023/04/11 14:58:31;;;;;;;;;3.33;2.00;;;;;28.24;32.87;101202.63;5031415;28;45535;-78
2023/04/11 15:00:57;;;;;;;;;0.00;0.00;;;;;28.24;32.96;101201.75;5029331;28;45439;-78
2023/04/11 15:03:23;;;;;;;;;1.00;1.00;;;;;28.25;33.55;101192.56;5032505;28;60770;-76
2023/04/11 15:05:48;;;;;;;;;1.67;1.00;;;;;28.24;33.03;101194.44;5034396;28;45440;-76
2023/04/11 15:08:13;;;;;;;;;0.00;0.00;;;;;28.28;33.45;101193.00;5034000;28;45870;-76
2023/04/11 15:10:39;;;;;;;;;1.67;1.67;;;;;28.31;33.24;101183.59;5035167;28;45387;-76
2023/04/11 15:13:05;;;;;;;;;4.33;1.33;;;;;28.33;32.83;101180.69;5033191;28;47211;-75
2023/04/11 15:15:31;;;;;;;;;1.33;1.00;;;;;28.33;32.86;101167.91;5033979;28;45698;-75
2023/04/11 15:18:23;;;;;;;;;4.00;2.00;;;;;28.33;33.26;101176.09;5034402;28;45357;-75
2023/04/11 15:20:49;;;;;;;;;0.67;0.67;;;;;28.34;33.49;101176.91;5033992;28;46727;-75
2023/04/11 15:23:14;;;;;;;;;3.00;1.00;;;;;28.35;33.23;101178.59;5033152;28;45815;-75
2023/04/11 15:25:40;;;;;;;;;1.67;1.00;;;;;28.36;33.15;101172.94;5034416;28;45622;-75
2023/04/11 15:28:05;;;;;;;;;3.33;1.00;;;;;28.36;33.21;101175.69;5033871;28;45516;-74
2023/04/11 15:30:30;;;;;;;;;0.00;0.00;;;;;28.37;33.26;101171.91;5030796;28;45593;-75
2023/04/11 15:32:56;;;;;;;;;0.33;0.33;;;;;28.38;33.02;101173.63;5033298;28;55862;-75
2023/04/11 15:35:21;;;;;;;;;3.00;0.33;;;;;28.37;33.08;101173.81;5033119;28;45454;-78
2023/04/11 15:37:46;;;;;;;;;1.00;1.00;;;;;28.36;33.31;101175.69;5031423;28;61016;-75
2023/04/11 15:40:14;;;;;;;;;0.00;0.00;;;;;28.37;32.70;101179.28;5033135;28;48395;-75
2023/04/11 15:42:39;;;;;;;;;1.00;1.00;;;;;28.33;32.73;101177.97;5030949;28;45526;-75
2023/04/11 15:45:05;;;;;;;;;1.00;1.00;;;;;28.28;33.16;101181.25;5033691;28;45527;-75
2023/04/11 15:47:32;;;;;;;;;0.67;0.67;;;;;28.22;32.89;101173.78;5032397;28;45548;-75
2023/04/11 15:50:00;;;;;;;;;0.33;0.33;;;;;28.18;32.53;101164.28;5033311;28;45823;-75
2023/04/11 15:52:26;;;;;;;;;0.67;0.67;;;;;28.10;32.75;101160.63;5024448;28;45441;-74
2023/04/11 15:54:51;;;;;;;;;0.00;0.00;;;;;28.09;33.02;101161.69;5033921;28;45412;-74
2023/04/11 15:57:17;;;;;;;;;1.33;1.33;;;;;28.05;32.42;101162.22;5029764;28;46104;-74
2023/04/11 15:59:42;;;;;;;;;4.00;1.00;;;;;28.03;32.83;101154.22;5029885;28;45371;-74
2023/04/11 16:02:08;;;;;;;;;1.00;0.00;;;;;28.02;32.27;101158.88;5027639;28;60174;-74
2023/04/11 16:04:37;;;;;;;;;1.00;1.00;;;;;27.98;32.70;101152.09;5030751;28;45390;-74
2023/04/11 16:07:04;;;;;;;;;2.33;1.00;;;;;27.96;32.52;101156.88;5033296;28;45426;-74
2023/04/11 16:09:30;;;;;;;;;1.67;1.67;;;;;27.94;32.31;101156.22;5027815;28;45529;-74
2023/04/11 16:11:55;;;;;;;;;1.33;1.33;;;;;27.88;32.37;101157.81;5021973;28;46061;-75
2023/04/11 16:14:21;;;;;;;;;0.00;0.00;;;;;27.82;32.32;101150.41;5030704;28;45683;-75
2023/04/11 16:16:46;;;;;;;;;4.00;1.00;;;;;27.79;32.37;101148.03;5030558;28;45519;-75
2023/04/11 16:19:12;;;;;;;;;2.00;1.67;;;;;27.77;32.80;101154.72;5030267;28;45533;-75
2023/04/11 16:21:37;;;;;;;;;1.00;1.00;;;;;27.73;32.50;101151.53;5031885;28;46106;-75
2023/04/11 16:24:03;;;;;;;;;0.00;0.00;;;;;27.65;32.30;101143.41;5031943;28;45530;-75
2023/04/11 16:26:28;;;;;;;;;0.33;0.33;;;;;27.63;32.41;101146.34;5027962;28;45752;-74
2023/04/11 16:28:53;;;;;;;;;2.00;1.00;;;;;27.60;32.85;101139.41;5029519;28;51853;-76
2023/04/11 16:31:23;;;;;;;;;1.00;1.00;;;;;27.58;33.02;101133.22;5028507;28;45915;-76
2023/04/11 16:33:49;;;;;;;;;2.33;0.33;;;;;27.57;33.16;101134.28;5028876;28;45536;-78
2023/04/11 16:36:14;;;;;;;;;1.67;1.00;;;;;27.55;32.78;101124.59;5032002;28;45480;-76
2023/04/11 16:38:40;;;;;;;;;2.00;2.00;;;;;27.55;33.17;101113.69;5034928;28;45855;-74
2023/04/11 16:41:05;;;;;;;;;2.00;2.00;;;;;27.55;32.43;101109.06;5031348;28;65950;-75
2023/04/11 16:43:30;;;;;;;;;7.67;6.33;;;;;27.53;33.16;101107.56;5032903;28;45994;-75
2023/04/11 16:45:56;;;;;;;;;28.67;24.67;;;;;27.54;32.73;101101.09;5032060;28;47375;-75
2023/04/11 16:48:23;;;;;;;;;34.00;30.67;;;;;27.55;32.81;101089.97;5032796;28;45605;-75
2023/04/11 16:50:48;;;;;;;;;36.75;30.75;;;;;27.56;32.68;101083.53;5031160;28;47103;-76
2023/04/11 16:53:15;;;;;;;;;32.75;29.50;;;;;27.56;32.55;101080.78;5029392;28;45921;-76
2023/04/11 16:55:40;;;;;;;;;41.25;34.50;;;;;27.55;33.43;101070.91;5046134;28;45395;-77
2023/04/11 16:58:06;;;;;;;;;37.50;31.25;;;;;27.57;33.38;101070.72;5024616;28;45859;-79
2023/04/11 17:00:31;;;;;;;;;29.50;29.50;;;;;27.58;32.80;101064.22;5028476;28;45523;-78
2023/04/11 17:02:57;;;;;;;;;34.50;31.00;;;;;27.55;33.06;101049.09;5032349;28;45627;-79
